Hlavní strana
METAR-TAF:

METAR-TAF

Letiště :

Anniston, Alabama, Spojené státy americké

zeměpisná šířka: 33-35-26N, zeměpisná délka: 085-50-51W, výška: 186 m

Aktuální stav počasí

Zpráva byla vytvořena před 19 minutami, v 10:53 UTC
Bezvětří
Teplota 21°C
Vlhkost vzduchu 88%
Tlak 1021 hPa
Viditelnost: 9.7 km
Jasno
kouřmo

METAR: KANB 241053Z AUTO 00000KT 6SM BR CLR 21/19 A3016 RMK AO2 SLP204 T02060194

Čas: 06:12 (11:12 UTC)

Předpověď počasí

Zpráva byla vytvořena před 5 hodinami a 52 minutami, v 05:20 UTC
Předpověď platná od 24 v 06 UTC do 25 v 06 UTC
Severní vítr kt
Viditelnost: 10 km
Skoro jasno ve výšce 6000 ft
Skoro jasno ve výšce 12000 ft
Od 24 v 1500 UTC
Jihozápadní vítr 5 kt
Viditelnost: 10 km
Polojasno ve výšce 6000 ft

TAF: KANB 240520Z 2406/2506 00000KT P6SM FEW060 FEW120 FM241500 23005KT P6SM SCT060

Stav a předpovědi počasí z více než 4 000 letišť (zprávy METAR a TAF).

Červené a žluté tečky na mapě představují dostupné meteorologické stanice.

Když kurzor umístíte na tečku, zobrazí se název stanice.

Pak kliknutím zobrazíte stav a předpověď počasí.

Chcete-li změnit mapu, kliknutím na zelené tlačítko se znaménkem +mapu přiblížíte, kliknutím na zelené tlačítko se znaménkem – mapu oddálíte a kliknutím na zelené šipky přejdete na sousední mapy.


METAR-TAF: